Time;durP1;ratioP1;P1;durP2;ratioP2;P2;SDS_P1;SDS_P2;PMS_P1;PMS_P2;Temp;Humidity;BMP_temperature;BMP_pressure;BME280_temperature;BME280_humidity;BME280_pressure;Samples;Min_cycle;Max_cycle;Signal;HPM_P1;HPM_P2
2022/06/27 00:01:15;;;;;;;9.02;7.20;;;18.20;99.90;;;;;;12382627;28;20046;-79
2022/06/27 00:07:18;;;;;;;8.02;7.07;;;18.10;99.90;;;;;;12359242;28;20074;-79
2022/06/27 00:13:20;;;;;;;12.20;7.63;;;18.20;99.90;;;;;;12371391;28;20042;-79
2022/06/27 00:19:22;;;;;;;10.52;8.35;;;18.10;99.90;;;;;;12333268;28;20058;-79
2022/06/27 00:25:23;;;;;;;9.50;7.70;;;18.10;99.90;;;;;;12333318;28;20059;-79
2022/06/27 00:31:25;;;;;;;15.70;7.78;;;18.20;99.90;;;;;;12324089;28;20047;-80
2022/06/27 00:37:27;;;;;;;10.60;8.23;;;18.30;99.90;;;;;;12328243;28;20046;-79
2022/06/27 00:43:29;;;;;;;13.05;9.18;;;18.30;99.90;;;;;;12335425;28;20133;-79
2022/06/27 00:49:31;;;;;;;9.23;8.30;;;18.30;99.90;;;;;;12326395;28;20048;-79
2022/06/27 00:55:33;;;;;;;10.70;8.50;;;18.30;99.90;;;;;;12338729;28;20090;-79
2022/06/27 01:01:35;;;;;;;14.05;9.50;;;18.30;99.90;;;;;;12352266;28;20569;-79
2022/06/27 01:07:38;;;;;;;9.65;8.68;;;18.20;99.90;;;;;;12341893;28;20058;-80
2022/06/27 01:13:40;;;;;;;11.97;9.07;;;18.30;99.90;;;;;;12312493;28;20455;-80
2022/06/27 01:19:42;;;;;;;11.23;10.13;;;18.40;99.90;;;;;;12397312;28;20062;-80
2022/06/27 01:25:44;;;;;;;13.07;9.65;;;18.30;99.90;;;;;;12376256;28;20050;-79
2022/06/27 01:31:46;;;;;;;10.77;9.65;;;18.30;99.90;;;;;;12381278;28;20039;-79
2022/06/27 01:37:48;;;;;;;10.90;9.55;;;18.30;99.90;;;;;;12388311;28;20046;-80
2022/06/27 01:43:50;;;;;;;12.02;9.10;;;18.30;99.90;;;;;;12374567;28;20047;-79
2022/06/27 01:49:52;;;;;;;12.82;9.70;;;18.40;99.90;;;;;;12397873;28;20050;-81
2022/06/27 01:55:54;;;;;;;15.65;10.77;;;18.60;99.90;;;;;;12390175;28;20093;-80
2022/06/27 02:01:58;;;;;;;17.48;10.35;;;18.60;99.90;;;;;;12374593;28;20126;-81
2022/06/27 02:08:02;;;;;;;12.45;11.15;;;18.70;99.90;;;;;;12369767;28;20177;-80
2022/06/27 02:14:05;;;;;;;20.17;11.90;;;18.60;99.90;;;;;;12360119;28;20042;-79
2022/06/27 02:20:07;;;;;;;14.77;10.88;;;18.40;99.90;;;;;;12353153;28;20585;-80
2022/06/27 02:26:11;;;;;;;12.05;10.75;;;18.30;99.90;;;;;;12379878;28;20100;-81
2022/06/27 02:32:14;;;;;;;15.25;10.98;;;18.20;99.90;;;;;;12390516;28;20403;-79
2022/06/27 02:38:17;;;;;;;17.50;13.07;;;18.10;99.90;;;;;;12379757;28;20461;-80
2022/06/27 02:44:21;;;;;;;13.73;12.33;;;18.00;99.90;;;;;;12370687;28;20061;-81
2022/06/27 02:50:24;;;;;;;;;;;17.90;99.90;;;;;;12370764;28;20332;-81
2022/06/27 02:56:32;;;;;;;10.77;9.63;;;17.90;99.90;;;;;;12356916;28;20012;-80
2022/06/27 03:02:36;;;;;;;13.80;11.87;;;17.80;99.90;;;;;;12401927;28;20239;-80
2022/06/27 03:08:40;;;;;;;15.40;11.50;;;17.80;99.90;;;;;;12397694;28;20133;-80
2022/06/27 03:14:41;;;;;;;;;;;18.00;99.90;;;;;;12367211;28;20173;-80
2022/06/27 03:20:43;;;;;;;16.45;11.70;;;17.80;99.90;;;;;;12393490;28;19981;-81
2022/06/27 03:26:45;;;;;;;13.38;11.35;;;17.80;99.90;;;;;;12389327;28;20043;-81
2022/06/27 03:32:47;;;;;;;22.33;11.80;;;17.80;99.90;;;;;;12389432;28;20100;-81
2022/06/27 03:38:49;;;;;;;24.92;11.98;;;17.80;99.90;;;;;;12366465;28;20047;-81
2022/06/27 03:44:51;;;;;;;17.15;11.70;;;17.80;99.90;;;;;;12361171;28;20055;-81
2022/06/27 03:50:52;;;;;;;20.10;12.57;;;17.70;99.90;;;;;;12366541;28;20177;-80
2022/06/27 03:56:57;;;;;;;15.93;12.27;;;17.60;99.90;;;;;;12369493;28;20507;-80
2022/06/27 04:02:59;;;;;;;32.45;12.75;;;17.60;99.90;;;;;;12368085;28;20150;-81
2022/06/27 04:09:01;;;;;;;20.08;12.95;;;17.60;99.90;;;;;;12381637;28;20173;-81
2022/06/27 04:15:04;;;;;;;16.75;13.43;;;17.80;99.90;;;;;;12358018;28;20042;-81
2022/06/27 04:21:06;;;;;;;20.20;14.18;;;17.80;99.90;;;;;;12351220;28;20133;-81
2022/06/27 04:27:08;;;;;;;19.27;13.95;;;17.80;99.90;;;;;;12374143;28;20050;-80
2022/06/27 04:33:11;;;;;;;16.67;14.07;;;17.80;99.90;;;;;;12363954;28;20630;-80
2022/06/27 04:39:15;;;;;;;15.85;12.07;;;17.80;99.90;;;;;;12372504;28;20104;-81
2022/06/27 04:45:18;;;;;;;14.75;13.18;;;17.80;99.90;;;;;;12351628;28;20146;-80
2022/06/27 04:51:20;;;;;;;15.48;13.70;;;17.80;99.90;;;;;;12351346;28;20061;-80
2022/06/27 04:57:22;;;;;;;15.95;13.35;;;17.80;99.90;;;;;;12371946;28;20148;-80
2022/06/27 05:03:24;;;;;;;16.33;14.63;;;17.70;99.90;;;;;;12380816;28;20109;-80
2022/06/27 05:09:26;;;;;;;22.48;16.00;;;17.70;99.90;;;;;;12367226;28;20050;-80
2022/06/27 05:15:28;;;;;;;15.80;14.18;;;17.80;99.90;;;;;;12346010;28;20055;-81
2022/06/27 05:21:30;;;;;;;16.90;15.10;;;17.80;99.90;;;;;;12348117;28;20071;-80
2022/06/27 05:27:34;;;;;;;17.27;15.35;;;17.80;99.90;;;;;;12361768;28;20189;-80
2022/06/27 05:33:37;;;;;;;18.38;16.17;;;17.90;99.90;;;;;;12369683;28;20141;-80
2022/06/27 05:39:42;;;;;;;19.88;17.73;;;17.80;99.90;;;;;;12372589;28;20042;-80
2022/06/27 05:45:45;;;;;;;21.45;17.63;;;17.90;99.90;;;;;;12367895;28;20050;-81
2022/06/27 05:51:47;;;;;;;17.27;15.48;;;17.80;99.90;;;;;;12386279;28;20431;-81
2022/06/27 05:57:48;;;;;;;18.42;16.52;;;17.90;99.90;;;;;;12378855;28;20046;-80
2022/06/27 06:03:50;;;;;;;23.15;16.95;;;17.80;99.90;;;;;;12382429;28;20046;-80
2022/06/27 06:09:52;;;;;;;20.98;18.77;;;17.90;99.90;;;;;;12384659;28;20051;-80
2022/06/27 06:15:54;;;;;;;22.98;18.25;;;17.80;99.90;;;;;;12367839;28;20542;-80
2022/06/27 06:21:57;;;;;;;28.55;21.27;;;17.70;99.90;;;;;;12367629;28;20038;-80
2022/06/27 06:28:01;;;;;;;32.30;20.33;;;17.80;99.90;;;;;;12359495;28;20058;-80
2022/06/27 06:34:04;;;;;;;36.03;21.30;;;17.80;99.90;;;;;;12366630;28;20081;-80
2022/06/27 06:40:07;;;;;;;28.60;20.85;;;17.70;99.90;;;;;;12391467;28;20061;-80
2022/06/27 06:46:10;;;;;;;35.20;23.50;;;17.80;99.90;;;;;;12413232;28;20093;-80
2022/06/27 06:52:12;;;;;;;32.67;21.47;;;17.70;99.90;;;;;;12396326;28;20528;-81
2022/06/27 06:58:14;;;;;;;41.13;22.48;;;17.70;99.90;;;;;;12377324;28;20085;-80
2022/06/27 07:04:16;;;;;;;35.35;22.77;;;17.80;99.90;;;;;;12359844;28;20464;-80
2022/06/27 07:10:20;;;;;;;32.20;23.57;;;17.80;99.90;;;;;;12352790;28;20042;-80
2022/06/27 07:16:24;;;;;;;30.73;21.10;;;17.80;99.90;;;;;;12372053;28;20055;-80
2022/06/27 07:22:28;;;;;;;31.83;21.42;;;17.90;99.90;;;;;;12384581;28;20047;-80
2022/06/27 07:28:31;;;;;;;23.30;17.70;;;17.90;99.90;;;;;;12352102;28;20100;-80
2022/06/27 07:34:32;;;;;;;25.65;19.50;;;17.90;99.90;;;;;;12367116;28;20169;-80
2022/06/27 07:40:35;;;;;;;25.13;18.90;;;17.90;99.90;;;;;;12362758;28;20092;-79
2022/06/27 07:46:38;;;;;;;21.65;17.08;;;18.00;99.90;;;;;;12382512;28;20450;-80
2022/06/27 07:59:00;;;;;;;28.42;20.17;;;18.20;99.90;;;;;;12366469;28;20050;-80
2022/06/27 08:05:02;;;;;;;31.75;22.75;;;18.00;99.90;;;;;;12361367;28;20050;-79
2022/06/27 08:11:06;;;;;;;32.95;25.05;;;18.00;99.90;;;;;;12378213;28;20061;-80
2022/06/27 08:17:08;;;;;;;;;;;18.00;99.90;;;;;;12409224;28;20407;-80
2022/06/27 08:23:10;;;;;;;36.88;26.17;;;17.90;99.90;;;;;;12350010;28;19922;-80
2022/06/27 08:29:12;;;;;;;44.35;27.88;;;17.90;99.90;;;;;;12375949;28;20545;-79
2022/06/27 08:35:14;;;;;;;41.13;27.58;;;18.00;99.90;;;;;;12374216;28;20047;-79
2022/06/27 08:41:18;;;;;;;43.28;26.60;;;18.00;99.90;;;;;;12363382;28;20105;-79
2022/06/27 08:47:21;;;;;;;37.80;27.33;;;18.10;99.90;;;;;;12370519;28;20051;-79
2022/06/27 08:53:25;;;;;;;45.97;28.17;;;18.10;99.90;;;;;;12393317;28;20058;-79
2022/06/27 08:59:28;;;;;;;38.75;27.63;;;18.10;99.90;;;;;;12354698;28;20054;-80
2022/06/27 09:05:31;;;;;;;78.10;30.77;;;18.10;99.90;;;;;;12372269;28;20096;-80
2022/06/27 09:11:36;;;;;;;68.57;29.33;;;18.00;99.90;;;;;;12384027;28;20081;-79
2022/06/27 09:17:38;;;;;;;76.95;33.58;;;18.10;99.90;;;;;;12356804;28;20562;-80
2022/06/27 09:23:49;;;;;;;37.55;27.77;;;18.20;99.90;;;;;;12359495;28;20562;-79
2022/06/27 09:29:51;;;;;;;41.15;27.98;;;18.30;99.90;;;;;;12364672;28;20130;-79
2022/06/27 09:35:54;;;;;;;40.55;28.27;;;18.20;99.90;;;;;;12358711;28;20050;-79
2022/06/27 09:42:02;;;;;;;40.63;28.13;;;18.40;99.90;;;;;;12357629;28;20568;-80
2022/06/27 09:48:06;;;;;;;44.60;30.75;;;18.40;99.90;;;;;;12371093;28;20065;-79
2022/06/27 09:54:22;;;;;;;40.75;28.48;;;18.30;99.90;;;;;;12395260;28;20051;-80
2022/06/27 10:00:24;;;;;;;43.50;29.25;;;18.20;99.90;;;;;;12397554;28;20042;-79
2022/06/27 10:06:27;;;;;;;38.67;25.52;;;18.30;99.90;;;;;;12371717;28;20539;-79
2022/06/27 10:12:36;;;;;;;43.13;28.77;;;18.30;99.90;;;;;;12381899;28;20038;-80
2022/06/27 10:18:56;;;;;;;42.28;26.92;;;18.30;99.90;;;;;;12380200;28;20179;-79
2022/06/27 10:25:26;;;;;;;45.58;27.08;;;18.30;99.90;;;;;;12374702;28;20189;-79
2022/06/27 10:31:44;;;;;;;41.35;27.42;;;18.30;99.90;;;;;;12370996;28;20137;-79
2022/06/27 10:37:46;;;;;;;29.95;22.35;;;18.40;99.90;;;;;;12376900;28;20038;-79
2022/06/27 10:43:51;;;;;;;32.30;25.23;;;18.80;99.90;;;;;;12365447;28;20043;-79
2022/06/27 10:50:13;;;;;;;32.03;25.33;;;18.90;99.90;;;;;;12388131;28;20060;-79
2022/06/27 10:56:33;;;;;;;34.60;25.23;;;18.80;99.90;;;;;;12378507;28;20035;-80
2022/06/27 11:02:36;;;;;;;34.63;25.52;;;18.60;99.90;;;;;;12389442;28;20558;-80
2022/06/27 11:08:48;;;;;;;34.63;25.77;;;18.70;99.90;;;;;;12392991;28;20423;-79
2022/06/27 11:14:58;;;;;;;41.03;28.17;;;18.60;99.90;;;;;;12380200;28;20182;-79
2022/06/27 11:21:00;;;;;;;35.60;26.92;;;18.60;99.90;;;;;;12383088;28;20553;-79
2022/06/27 11:27:02;;;;;;;31.58;24.20;;;18.60;99.90;;;;;;12391082;28;20519;-80
2022/06/27 11:33:04;;;;;;;36.28;25.85;;;18.70;99.90;;;;;;12375180;28;20112;-80
2022/06/27 11:39:06;;;;;;;33.72;24.92;;;18.70;99.90;;;;;;12368898;28;20096;-79
2022/06/27 11:45:13;;;;;;;37.15;27.92;;;18.60;99.90;;;;;;12375906;28;20046;-79
2022/06/27 11:51:48;;;;;;;37.28;25.90;;;18.50;99.90;;;;;;12384243;28;20529;-80
2022/06/27 11:57:55;;;;;;;42.38;27.13;;;18.40;99.90;;;;;;12372929;28;20096;-79
2022/06/27 12:04:14;;;;;;;47.15;29.55;;;18.20;99.90;;;;;;12355384;28;20081;-79
2022/06/27 12:10:15;;;;;;;55.65;31.58;;;18.20;99.90;;;;;;12372287;28;20047;-80
2022/06/27 12:16:17;;;;;;;47.10;30.23;;;18.10;99.90;;;;;;12380846;28;20046;-80
2022/06/27 12:22:19;;;;;;;46.15;27.70;;;18.10;99.90;;;;;;12373409;28;21719;-79
2022/06/27 12:28:42;;;;;;;52.92;31.27;;;18.10;99.90;;;;;;12378292;28;20112;-79
2022/06/27 12:34:43;;;;;;;52.50;32.88;;;18.10;99.90;;;;;;12379946;28;20042;-79
2022/06/27 12:40:45;;;;;;;40.25;27.55;;;18.00;99.90;;;;;;12396976;28;20505;-79
2022/06/27 12:46:47;;;;;;;35.92;24.23;;;17.90;99.90;;;;;;12359634;28;20514;-80
2022/06/27 12:52:58;;;;;;;41.10;26.75;;;17.80;99.90;;;;;;12381692;28;20136;-80
2022/06/27 12:59:00;;;;;;;41.28;27.13;;;17.80;99.90;;;;;;12397911;28;20836;-80
2022/06/27 13:05:02;;;;;;;46.75;28.38;;;17.90;99.90;;;;;;12373607;28;20038;-79
2022/06/27 13:11:04;;;;;;;42.67;26.77;;;17.80;99.90;;;;;;12377846;28;20089;-79
2022/06/27 13:17:06;;;;;;;47.60;30.45;;;17.80;99.90;;;;;;12365376;28;20189;-80
2022/06/27 13:23:08;;;;;;;54.25;32.22;;;17.70;99.90;;;;;;12349222;28;20051;-79
2022/06/27 13:29:10;;;;;;;52.03;30.75;;;17.70;99.90;;;;;;12350123;28;20053;-79
2022/06/27 13:35:12;;;;;;;52.10;30.65;;;17.50;99.90;;;;;;12355894;28;20048;-79
2022/06/27 13:41:14;;;;;;;50.42;30.63;;;17.50;99.90;;;;;;12365887;28;20146;-79
2022/06/27 13:47:16;;;;;;;48.13;31.15;;;17.40;99.90;;;;;;12383093;28;20544;-79
2022/06/27 13:53:18;;;;;;;55.53;32.80;;;17.40;99.90;;;;;;12395436;28;20450;-79
2022/06/27 13:59:20;;;;;;;52.53;32.95;;;17.60;99.90;;;;;;12386009;28;20081;-80
2022/06/27 14:05:22;;;;;;;46.08;32.80;;;17.50;99.90;;;;;;12373463;28;20050;-79
2022/06/27 14:11:25;;;;;;;41.60;30.00;;;17.60;99.90;;;;;;12369800;28;20058;-79
2022/06/27 14:17:26;;;;;;;44.50;30.88;;;17.60;99.90;;;;;;12382904;28;20058;-80
2022/06/27 14:23:28;;;;;;;41.15;30.05;;;17.50;99.90;;;;;;12376399;28;20081;-79
2022/06/27 14:29:30;;;;;;;44.03;32.60;;;17.50;99.90;;;;;;12381929;28;20078;-79
2022/06/27 14:35:32;;;;;;;44.88;32.25;;;17.60;99.90;;;;;;12367421;28;20042;-79
2022/06/27 14:41:34;;;;;;;42.78;29.95;;;17.60;99.90;;;;;;12389753;28;20101;-79
2022/06/27 14:47:37;;;;;;;40.17;30.77;;;17.70;99.90;;;;;;12375734;28;20089;-80
2022/06/27 14:53:39;;;;;;;43.67;29.10;;;17.70;99.90;;;;;;12391299;28;20046;-79
2022/06/27 14:59:42;;;;;;;38.47;28.30;;;17.70;99.90;;;;;;12407776;28;20040;-80
2022/06/27 15:05:44;;;;;;;42.88;28.55;;;17.70;99.90;;;;;;12398547;28;20074;-79
2022/06/27 15:11:50;;;;;;;37.13;26.75;;;17.70;99.90;;;;;;12369231;28;20054;-80
2022/06/27 15:17:54;;;;;;;35.10;26.35;;;17.60;99.90;;;;;;12390521;28;20070;-79
2022/06/27 15:23:55;;;;;;;33.20;23.85;;;17.60;99.90;;;;;;12378352;28;20042;-79
2022/06/27 15:29:57;;;;;;;32.38;23.30;;;17.70;99.90;;;;;;12370182;28;20059;-80
2022/06/27 15:36:04;;;;;;;30.50;22.40;;;17.80;99.90;;;;;;12365516;28;20145;-79
2022/06/27 15:42:06;;;;;;;31.60;21.55;;;17.90;99.90;;;;;;12366712;28;20069;-79
2022/06/27 15:48:08;;;;;;;29.27;21.17;;;18.00;99.90;;;;;;12376262;28;20063;-80
2022/06/27 15:54:10;;;;;;;27.25;20.02;;;17.90;99.90;;;;;;12386402;28;20396;-80
2022/06/27 16:00:13;;;;;;;25.55;18.48;;;17.80;99.90;;;;;;12346879;28;20050;-79
2022/06/27 16:06:16;;;;;;;21.70;17.13;;;17.90;99.90;;;;;;12371534;28;20604;-79
2022/06/27 16:12:18;;;;;;;23.33;17.65;;;17.90;99.90;;;;;;12386174;28;20154;-80
2022/06/27 16:18:21;;;;;;;22.58;15.57;;;17.70;99.90;;;;;;12364338;28;21510;-79
2022/06/27 16:24:25;;;;;;;22.25;16.65;;;17.80;99.90;;;;;;12361913;28;20103;-80
2022/06/27 16:36:48;;;;;;;18.50;14.77;;;17.90;99.90;;;;;;12383425;28;20450;-80
2022/06/27 16:49:10;;;;;;;19.38;14.15;;;18.10;99.90;;;;;;12374685;28;20200;-79
2022/06/27 16:55:19;;;;;;;19.35;12.95;;;18.20;99.90;;;;;;12384305;28;20050;-80
2022/06/27 17:01:21;;;;;;;15.73;12.25;;;18.20;99.90;;;;;;12367975;28;20125;-80
2022/06/27 17:07:22;;;;;;;14.35;10.90;;;18.30;99.90;;;;;;12404052;28;20046;-80
2022/06/27 17:13:25;;;;;;;17.55;12.00;;;18.20;99.90;;;;;;12373920;28;20640;-79
2022/06/27 17:19:27;;;;;;;14.63;11.85;;;18.60;99.90;;;;;;12363430;28;20507;-80
2022/06/27 17:25:29;;;;;;;13.98;10.45;;;18.80;99.90;;;;;;12367216;28;20506;-80
2022/06/27 17:31:31;;;;;;;12.88;9.35;;;18.80;99.90;;;;;;12375650;28;20124;-80
2022/06/27 17:37:33;;;;;;;13.05;9.05;;;18.70;99.90;;;;;;12365857;28;20540;-80
2022/06/27 17:43:34;;;;;;;10.98;7.30;;;18.80;99.90;;;;;;12347500;28;20257;-79
2022/06/27 17:49:38;;;;;;;8.18;6.57;;;18.60;99.90;;;;;;12360805;28;20169;-80
2022/06/27 17:55:41;;;;;;;11.73;6.85;;;18.70;99.90;;;;;;12373451;28;20042;-79
2022/06/27 18:01:42;;;;;;;7.88;6.47;;;18.60;99.90;;;;;;12350976;28;20035;-79
2022/06/27 18:08:04;;;;;;;8.80;6.10;;;18.50;99.90;;;;;;12388604;28;20055;-79
2022/06/27 18:14:06;;;;;;;7.97;5.70;;;18.50;99.90;;;;;;12386633;28;20421;-80
2022/06/27 18:20:12;;;;;;;7.03;5.68;;;18.30;99.90;;;;;;12367069;28;20034;-80
2022/06/27 18:26:14;;;;;;;7.40;6.25;;;18.10;99.90;;;;;;12384333;28;20129;-80
2022/06/27 18:32:16;;;;;;;7.15;5.72;;;18.20;99.90;;;;;;12372569;28;20077;-80
2022/06/27 18:38:18;;;;;;;7.47;5.93;;;18.20;99.90;;;;;;12374698;28;20057;-80
2022/06/27 18:44:20;;;;;;;7.18;5.80;;;18.10;99.90;;;;;;12393956;28;20160;-80
2022/06/27 18:50:22;;;;;;;11.00;6.70;;;18.10;99.90;;;;;;12370077;28;20068;-79
2022/06/27 18:56:24;;;;;;;10.18;7.05;;;17.90;99.90;;;;;;12364413;28;20057;-80
2022/06/27 19:02:26;;;;;;;16.73;6.00;;;17.90;99.90;;;;;;12355857;28;20039;-81
2022/06/27 19:08:28;;;;;;;17.75;6.82;;;18.00;99.90;;;;;;12389472;28;20439;-80
2022/06/27 19:14:29;;;;;;;10.13;7.30;;;17.90;99.90;;;;;;12362674;28;20089;-80
2022/06/27 19:20:31;;;;;;;12.35;6.13;;;17.80;99.90;;;;;;12385618;28;20105;-80
2022/06/27 19:26:33;;;;;;;12.48;7.45;;;17.90;99.90;;;;;;12365037;28;21099;-81
2022/06/27 19:32:35;;;;;;;11.00;7.80;;;17.90;99.90;;;;;;12356778;28;20034;-80
2022/06/27 19:38:38;;;;;;;11.93;6.78;;;17.90;99.90;;;;;;12394918;28;20445;-80
2022/06/27 19:44:40;;;;;;;10.90;6.97;;;17.80;99.90;;;;;;12372592;28;20085;-81
2022/06/27 19:50:42;;;;;;;14.32;7.38;;;17.70;99.90;;;;;;12395500;28;20045;-81
2022/06/27 19:56:46;;;;;;;10.27;7.05;;;17.70;99.90;;;;;;12373972;28;20380;-80
2022/06/27 20:02:49;;;;;;;;;;;17.70;99.90;;;;;;12373212;28;20046;-81
2022/06/27 20:08:52;;;;;;;12.95;8.98;;;17.70;99.90;;;;;;12401921;28;19922;-81
2022/06/27 20:14:53;;;;;;;17.60;10.10;;;17.70;99.90;;;;;;12392033;28;20470;-81
2022/06/27 20:20:55;;;;;;;16.42;9.30;;;17.60;99.90;;;;;;12378979;28;20043;-81
2022/06/27 20:26:57;;;;;;;11.32;9.57;;;17.70;99.90;;;;;;12368348;28;20623;-80
2022/06/27 20:33:04;;;;;;;12.82;10.82;;;17.60;99.90;;;;;;12386095;28;20047;-81
2022/06/27 20:39:07;;;;;;;13.63;10.20;;;17.50;99.90;;;;;;12359925;28;20047;-79
2022/06/27 20:45:10;;;;;;;13.95;10.18;;;17.40;99.90;;;;;;12359970;28;20038;-80
2022/06/27 20:51:12;;;;;;;11.50;9.53;;;17.30;99.90;;;;;;12378562;28;20173;-79
2022/06/27 20:57:14;;;;;;;39.20;11.20;;;17.20;99.90;;;;;;12375955;28;20050;-80
2022/06/27 21:03:16;;;;;;;49.72;10.57;;;17.20;99.90;;;;;;12387563;28;20108;-80
2022/06/27 21:15:39;;;;;;;31.65;11.15;;;17.20;99.90;;;;;;12389687;28;20058;-80
2022/06/27 21:21:42;;;;;;;21.45;11.23;;;17.00;99.90;;;;;;12356913;28;20575;-80
2022/06/27 21:27:44;;;;;;;12.32;10.10;;;16.80;99.90;;;;;;12373960;28;20137;-80
2022/06/27 21:33:46;;;;;;;15.68;10.18;;;16.80;99.90;;;;;;12362097;28;20100;-80
2022/06/27 21:39:48;;;;;;;12.80;10.60;;;16.90;99.90;;;;;;12383383;28;20498;-79
2022/06/27 21:45:49;;;;;;;15.15;10.73;;;16.60;99.90;;;;;;12372706;28;20466;-80
2022/06/27 21:51:51;;;;;;;14.13;9.77;;;16.40;99.90;;;;;;12366924;28;20510;-80
2022/06/27 21:57:54;;;;;;;10.88;9.50;;;16.50;99.90;;;;;;12351158;28;20043;-80
2022/06/27 22:03:56;;;;;;;10.80;9.57;;;16.40;99.90;;;;;;12380842;28;20061;-81
2022/06/27 22:09:58;;;;;;;15.75;9.23;;;16.40;99.90;;;;;;12405018;28;20507;-81
2022/06/27 22:16:00;;;;;;;13.95;8.75;;;16.40;99.90;;;;;;12381380;28;20120;-81
2022/06/27 22:22:02;;;;;;;12.82;9.25;;;16.20;99.90;;;;;;12379771;28;20046;-79
2022/06/27 22:28:04;;;;;;;14.43;9.18;;;16.00;99.90;;;;;;12374724;28;20113;-80
2022/06/27 22:34:06;;;;;;;12.95;9.35;;;16.00;99.90;;;;;;12368693;28;20051;-80
2022/06/27 22:40:09;;;;;;;12.98;9.07;;;16.20;99.90;;;;;;12376832;28;20063;-80
2022/06/27 22:46:10;;;;;;;11.80;8.48;;;16.00;99.90;;;;;;12376045;28;20077;-80
2022/06/27 22:52:12;;;;;;;10.82;8.10;;;16.00;99.90;;;;;;12366163;28;20042;-79
2022/06/27 22:58:14;;;;;;;12.23;7.43;;;15.80;99.90;;;;;;12360411;28;20098;-79
2022/06/27 23:04:19;;;;;;;13.15;7.43;;;15.70;99.90;;;;;;12367441;28;20034;-80
2022/06/27 23:10:22;;;;;;;11.65;7.22;;;15.60;99.90;;;;;;12373923;28;20054;-80
2022/06/27 23:16:24;;;;;;;9.55;6.75;;;15.60;99.90;;;;;;12376513;28;20042;-80
2022/06/27 23:22:27;;;;;;;10.52;7.10;;;15.50;99.90;;;;;;12382108;28;20050;-79
2022/06/27 23:28:29;;;;;;;13.25;6.72;;;15.50;99.90;;;;;;12362648;28;20632;-80
2022/06/27 23:34:30;;;;;;;8.82;5.78;;;15.60;99.90;;;;;;12357479;28;20043;-79
2022/06/27 23:40:32;;;;;;;9.95;5.60;;;15.80;99.90;;;;;;12397884;28;20057;-80
2022/06/27 23:46:34;;;;;;;7.32;5.25;;;15.40;99.90;;;;;;12370768;28;20096;-79
2022/06/27 23:52:36;;;;;;;11.52;6.47;;;15.50;99.90;;;;;;12401679;28;20046;-79
2022/06/27 23:58:39;;;;;;;8.88;5.70;;;15.20;99.90;;;;;;12381605;28;20050;-80
